Time;durP1;ratioP1;P1;durP2;ratioP2;P2;SDS_P1;SDS_P2;PMS_P1;PMS_P2;Temp;Humidity;BMP_temperature;BMP_pressure;BME280_temperature;BME280_humidity;BME280_pressure;Samples;Min_cycle;Max_cycle;Signal;HPM_P1;HPM_P2
2024/03/30 00:00:52;;;;;;;4.43;3.00;;;;;;;10.48;77.30;96561.50;5005560;28;20022;-77
2024/03/30 00:03:17;;;;;;;5.05;2.97;;;;;;;10.42;78.04;96559.94;5007593;28;20147;-75
2024/03/30 00:05:43;;;;;;;4.05;3.30;;;;;;;10.49;78.05;96579.25;4994899;28;20049;-74
2024/03/30 00:08:09;;;;;;;3.90;3.20;;;;;;;10.31;78.05;96544.97;4993283;28;20029;-74
2024/03/30 00:10:39;;;;;;;3.70;3.40;;;;;;;10.45;77.81;96578.22;5012815;28;20440;-73
2024/03/30 00:13:09;;;;;;;3.60;3.30;;;;;;;10.39;77.98;96568.56;5002321;28;20061;-74
2024/03/30 00:15:36;;;;;;;4.82;3.55;;;;;;;10.33;78.35;96575.09;5003022;28;20056;-75
2024/03/30 00:18:02;;;;;;;4.82;3.50;;;;;;;10.29;78.16;96563.31;4968783;28;20117;-75
2024/03/30 00:20:29;;;;;;;4.07;3.67;;;;;;;10.36;78.69;96577.22;5013566;28;20071;-75
2024/03/30 00:22:59;;;;;;;4.53;3.42;;;;;;;10.30;78.89;96570.28;5006289;28;20120;-75
2024/03/30 00:25:25;;;;;;;4.10;3.38;;;;;;;10.33;78.63;96575.09;4996729;28;20049;-76
2024/03/30 00:27:53;;;;;;;3.97;3.40;;;;;;;10.27;78.58;96574.31;4986745;28;20042;-75
2024/03/30 00:30:20;;;;;;;5.53;3.55;;;;;;;10.26;78.56;96569.22;4968958;28;20136;-76
2024/03/30 00:32:48;;;;;;;4.32;3.75;;;;;;;10.12;78.79;96547.56;4980104;28;20079;-76
2024/03/30 00:35:16;;;;;;;5.55;4.10;;;;;;;10.19;79.01;96574.13;4980702;28;20038;-75
2024/03/30 00:37:43;;;;;;;4.80;3.88;;;;;;;10.12;79.10;96557.50;4995714;28;20095;-74
2024/03/30 00:40:09;;;;;;;7.60;5.07;;;;;;;10.25;79.18;96589.13;4995966;28;20046;-75
2024/03/30 00:42:35;;;;;;;5.22;4.30;;;;;;;10.15;79.40;96567.72;4997377;28;20448;-75
2024/03/30 00:45:00;;;;;;;7.32;4.30;;;;;;;10.21;79.29;96582.72;5001719;28;20041;-75
2024/03/30 00:47:28;;;;;;;5.13;4.60;;;;;;;10.15;79.34;96573.88;5008475;28;20401;-74
2024/03/30 00:49:53;;;;;;;3.92;3.53;;;;;;;10.25;79.70;96583.75;5007864;28;20037;-75
2024/03/30 00:52:19;;;;;;;3.85;3.47;;;;;;;10.18;79.92;96584.09;5020347;28;20026;-75
2024/03/30 00:54:47;;;;;;;4.30;3.90;;;;;;;10.08;79.78;96567.97;5004779;28;20048;-75
2024/03/30 00:57:15;;;;;;;4.75;3.70;;;;;;;10.16;79.88;96585.44;5001425;28;20057;-74
2024/03/30 00:59:44;;;;;;;3.55;3.20;;;;;;;10.20;79.81;96581.09;4983847;28;20102;-75
2024/03/30 01:02:10;;;;;;;6.50;3.10;;;;;;;10.16;79.61;96574.69;4993013;28;20048;-74
2024/03/30 01:04:36;;;;;;;5.72;3.05;;;;;;;10.16;79.65;96585.44;5007457;28;20056;-74
2024/03/30 01:07:03;;;;;;;4.70;2.70;;;;;;;10.16;79.59;96583.56;5009387;28;20026;-74
2024/03/30 01:09:29;;;;;;;4.20;2.80;;;;;;;10.13;79.77;96575.25;5010869;28;20045;-74
2024/03/30 01:11:56;;;;;;;3.42;2.80;;;;;;;10.16;79.75;96588.13;5007672;28;20026;-74
2024/03/30 01:14:24;;;;;;;4.05;2.70;;;;;;;10.13;79.89;96580.63;5005451;28;20053;-75
2024/03/30 01:16:52;;;;;;;6.65;2.90;;;;;;;10.08;79.56;96567.22;4980895;28;20061;-74
2024/03/30 01:19:20;;;;;;;6.53;2.63;;;;;;;10.12;79.37;96573.66;5019730;28;20055;-74
2024/03/30 01:21:47;;;;;;;6.25;2.72;;;;;;;10.20;80.44;96587.28;5001506;28;20034;-74
2024/03/30 01:24:14;;;;;;;8.23;2.85;;;;;;;10.12;79.88;96568.28;5008610;28;20038;-74
2024/03/30 01:26:48;;;;;;;6.70;2.67;;;;;;;10.21;79.89;96571.97;4986174;28;20049;-75
2024/03/30 01:29:16;;;;;;;5.63;2.90;;;;;;;10.16;79.81;96564.75;5019989;28;20034;-74
2024/03/30 01:31:54;;;;;;;4.82;2.67;;;;;;;10.26;79.44;96577.31;5006181;28;20120;-74
2024/03/30 01:34:21;;;;;;;6.95;3.03;;;;;;;10.18;80.09;96583.28;5010135;28;20484;-75
2024/03/30 01:36:47;;;;;;;5.70;2.90;;;;;;;10.13;80.01;96570.66;4989382;28;20048;-76
2024/03/30 01:39:14;;;;;;;6.07;2.80;;;;;;;10.17;79.91;96570.94;4993940;28;20040;-74
2024/03/30 01:41:39;;;;;;;10.30;3.55;;;;;;;10.10;79.70;96575.78;4985929;28;20034;-74
2024/03/30 01:44:07;;;;;;;6.53;3.05;;;;;;;10.04;80.02;96550.00;5002998;28;20554;-74
2024/03/30 01:46:34;;;;;;;9.43;3.42;;;;;;;10.21;80.03;96577.34;5000473;28;20030;-74
2024/03/30 01:49:02;;;;;;;8.30;3.60;;;;;;;10.20;80.01;96581.09;5006072;28;20049;-74
2024/03/30 01:51:28;;;;;;;10.65;3.88;;;;;;;10.20;79.75;96583.78;4992484;28;20038;-75
2024/03/30 01:53:55;;;;;;;7.50;3.55;;;;;;;10.20;79.97;96581.91;4982503;28;20121;-73
2024/03/30 01:56:21;;;;;;;8.52;3.38;;;;;;;10.20;79.90;96583.78;4983127;28;20446;-74
2024/03/30 01:58:48;;;;;;;12.20;4.43;;;;;;;10.19;79.80;96583.00;5006840;28;20493;-73
2024/03/30 02:01:15;;;;;;;16.38;4.80;;;;;;;10.17;79.56;96577.13;4995756;28;20025;-75
2024/03/30 02:03:44;;;;;;;18.33;4.70;;;;;;;10.23;79.73;96577.84;4973542;28;20457;-74
2024/03/30 02:06:09;;;;;;;13.18;5.28;;;;;;;10.18;79.81;96581.41;5022395;28;20558;-74
2024/03/30 02:08:42;;;;;;;13.65;4.32;;;;;;;10.19;79.56;96579.50;4995644;28;20353;-75
2024/03/30 02:11:12;;;;;;;15.18;5.05;;;;;;;10.19;79.88;96580.31;5006375;28;20072;-75
2024/03/30 02:13:39;;;;;;;23.73;6.80;;;;;;;10.10;79.96;96559.66;4991745;28;20033;-74
2024/03/30 02:16:08;;;;;;;22.73;6.95;;;;;;;10.13;79.47;96569.88;4995669;28;20087;-74
2024/03/30 02:18:34;;;;;;;20.15;6.00;;;;;;;10.18;79.69;96561.75;5012273;28;20048;-75
2024/03/30 02:21:00;;;;;;;28.00;7.32;;;;;;;10.25;79.20;96573.81;5009359;28;20022;-75
2024/03/30 02:23:26;;;;;;;25.40;7.20;;;;;;;10.18;79.37;96559.88;5008871;28;21022;-74
2024/03/30 02:25:57;;;;;;;27.70;7.53;;;;;;;10.22;79.13;96557.44;4994812;28;20029;-74
2024/03/30 02:28:23;;;;;;;26.75;7.60;;;;;;;10.19;78.91;96555.31;5004656;28;20428;-74
2024/03/30 02:30:49;;;;;;;26.52;7.85;;;;;;;10.17;79.29;96552.09;4995572;28;20040;-74
2024/03/30 02:33:17;;;;;;;29.98;8.07;;;;;;;10.18;79.33;96561.75;5004597;28;20049;-73
2024/03/30 02:35:42;;;;;;;31.73;8.40;;;;;;;10.12;79.12;96557.50;5007119;28;20033;-74
2024/03/30 02:38:10;;;;;;;38.13;8.52;;;;;;;10.04;79.37;96550.81;5018470;28;20050;-74
2024/03/30 02:40:39;;;;;;;36.80;8.88;;;;;;;10.18;79.03;96561.75;5014912;28;20491;-73
2024/03/30 02:43:15;;;;;;;30.40;8.15;;;;;;;10.12;78.69;96547.56;5008656;28;20045;-74
2024/03/30 02:45:41;;;;;;;44.90;9.90;;;;;;;10.13;78.63;96548.34;4998351;28;20521;-75
2024/03/30 02:48:07;;;;;;;49.75;9.88;;;;;;;10.24;78.36;96549.88;5010493;28;20080;-75
2024/03/30 02:50:35;;;;;;;43.05;10.23;;;;;;;10.16;77.91;96537.03;5003190;28;20416;-76
2024/03/30 02:53:02;;;;;;;50.38;11.48;;;;;;;10.24;77.96;96553.38;4975155;28;20045;-75
2024/03/30 02:55:28;;;;;;;58.08;12.38;;;;;;;10.13;77.22;96532.19;4995734;28;20045;-76
2024/03/30 02:57:59;;;;;;;60.28;12.60;;;;;;;10.32;76.82;96557.34;5022591;28;20029;-76
2024/03/30 03:00:26;;;;;;;61.97;12.45;;;;;;;10.13;76.99;96529.50;5004754;28;20050;-75
2024/03/30 03:02:54;;;;;;;56.85;12.40;;;;;;;10.22;76.82;96536.69;5010859;28;20088;-75
2024/03/30 03:05:20;;;;;;;63.25;12.82;;;;;;;10.36;76.33;96558.41;5020258;28;20038;-73
2024/03/30 03:07:50;;;;;;;73.90;14.07;;;;;;;10.25;76.07;96535.34;4992772;28;20029;-74
2024/03/30 03:10:17;;;;;;;73.95;16.00;;;;;;;10.37;74.94;96543.84;5010559;28;20034;-74
2024/03/30 03:12:42;;;;;;;69.97;14.00;;;;;;;10.32;74.21;96519.66;5015408;28;20392;-75
2024/03/30 03:15:14;;;;;;;80.05;14.52;;;;;;;10.43;73.94;96538.13;5024415;28;20037;-74
2024/03/30 03:17:40;;;;;;;67.05;15.35;;;;;;;10.45;73.39;96532.47;5000940;28;20069;-75
2024/03/30 03:20:06;;;;;;;103.45;18.75;;;;;;;10.51;72.75;96539.41;4997126;28;20026;-75
2024/03/30 03:22:35;;;;;;;101.00;19.67;;;;;;;10.57;70.93;96538.25;5003776;28;20037;-74
2024/03/30 03:25:06;;;;;;;97.78;19.52;;;;;;;10.67;69.25;96527.38;5007861;28;20053;-75
2024/03/30 03:27:31;;;;;;;108.55;21.48;;;;;;;10.94;66.43;96516.06;5001572;28;20038;-74
2024/03/30 03:29:57;;;;;;;112.07;20.90;;;;;;;11.28;64.33;96524.78;4981652;28;20028;-74
2024/03/30 03:32:23;;;;;;;98.82;17.25;;;;;;;11.45;63.92;96508.13;5001082;28;20107;-75
2024/03/30 03:34:49;;;;;;;85.43;16.70;;;;;;;11.44;64.33;96504.59;4992687;28;20025;-76
2024/03/30 03:37:14;;;;;;;84.95;16.52;;;;;;;11.43;64.71;96508.41;5019586;28;20100;-77
2024/03/30 03:39:42;;;;;;;84.97;15.27;;;;;;;11.52;64.85;96512.06;4993432;28;20409;-73
2024/03/30 03:42:08;;;;;;;79.15;15.35;;;;;;;11.36;65.36;96502.59;5008819;28;20056;-74
2024/03/30 03:44:40;;;;;;;81.85;16.45;;;;;;;11.41;64.60;96509.78;4995867;28;20072;-74
2024/03/30 03:47:06;;;;;;;70.38;15.18;;;;;;;11.38;64.25;96505.78;4999030;28;20458;-74
2024/03/30 03:49:33;;;;;;;92.75;17.02;;;;;;;11.34;65.02;96495.88;5015404;28;20878;-74
2024/03/30 03:52:00;;;;;;;84.18;15.57;;;;;;;11.31;63.98;96493.75;5004285;28;20049;-75
2024/03/30 03:54:26;;;;;;;79.75;17.88;;;;;;;11.42;62.68;96500.59;5001737;28;20025;-73
2024/03/30 03:56:51;;;;;;;86.15;15.45;;;;;;;11.58;61.85;96504.69;5018558;28;20037;-73
2024/03/30 03:59:18;;;;;;;83.20;15.68;;;;;;;11.58;62.56;96499.28;5003835;28;20446;-74
2024/03/30 04:01:52;;;;;;;78.18;17.50;;;;;;;11.53;62.59;96502.06;5017478;28;20039;-77
2024/03/30 04:04:17;;;;;;;93.88;18.73;;;;;;;11.43;62.12;96494.13;4989891;28;20033;-76
2024/03/30 04:06:44;;;;;;;73.93;16.35;;;;;;;11.41;62.67;96489.00;4998092;28;20459;-76
2024/03/30 04:09:09;;;;;;;91.90;15.75;;;;;;;11.31;63.56;96477.59;5008735;28;20132;-75
2024/03/30 04:11:37;;;;;;;71.22;15.85;;;;;;;11.45;64.13;96511.63;4997489;28;20038;-75
2024/03/30 04:14:04;;;;;;;97.82;16.48;;;;;;;11.45;63.80;96521.59;4993239;28;20520;-74
2024/03/30 04:16:35;;;;;;;66.32;15.23;;;;;;;11.36;64.81;96515.25;5016803;28;20038;-74
2024/03/30 04:19:05;;;;;;;61.35;12.77;;;;;;;11.31;65.76;96520.69;5016517;28;20021;-74
2024/03/30 04:21:32;;;;;;;74.10;14.73;;;;;;;11.25;66.38;96514.56;4994213;28;20130;-74
2024/03/30 04:23:59;;;;;;;73.60;14.20;;;;;;;11.26;66.87;96520.75;5003191;28;20046;-75
2024/03/30 04:26:26;;;;;;;60.80;12.52;;;;;;;11.17;67.16;96514.41;5010512;28;20041;-74
2024/03/30 04:28:51;;;;;;;63.40;14.10;;;;;;;11.19;67.90;96531.09;5020217;28;20030;-75
2024/03/30 04:31:18;;;;;;;65.63;13.27;;;;;;;11.11;68.08;96516.38;5003761;28;20092;-74
2024/03/30 04:33:44;;;;;;;53.70;12.07;;;;;;;11.01;68.08;96500.34;5005635;28;20536;-74
2024/03/30 04:36:10;;;;;;;61.63;11.80;;;;;;;11.08;68.07;96528.50;4995291;28;20061;-74
2024/03/30 04:38:35;;;;;;;56.05;12.23;;;;;;;10.99;68.38;96514.09;5004819;28;20028;-73
2024/03/30 04:41:06;;;;;;;68.07;13.25;;;;;;;11.10;67.67;96515.59;5005831;28;20041;-76
2024/03/30 04:43:34;;;;;;;61.58;13.48;;;;;;;10.92;67.49;96489.38;4992911;28;20033;-76
2024/03/30 04:46:08;;;;;;;73.25;13.85;;;;;;;11.02;67.65;96497.34;4988066;28;20029;-76
2024/03/30 04:48:37;;;;;;;63.10;13.25;;;;;;;10.95;67.18;96479.94;4988752;28;20058;-75
2024/03/30 04:51:04;;;;;;;59.58;13.45;;;;;;;11.00;67.28;96499.53;5018660;28;20046;-74
2024/03/30 04:53:35;;;;;;;64.95;12.68;;;;;;;11.04;67.42;96500.56;5002614;28;20040;-75
2024/03/30 04:56:03;;;;;;;68.82;13.63;;;;;;;10.99;66.58;96491.75;5009117;28;20029;-75
2024/03/30 04:58:35;;;;;;;71.80;15.40;;;;;;;11.11;66.51;96501.00;5002409;28;20034;-75
2024/03/30 05:01:03;;;;;;;63.13;13.23;;;;;;;11.11;67.53;96494.81;5024133;28;20033;-75
2024/03/30 05:03:29;;;;;;;54.10;13.52;;;;;;;10.92;68.92;96497.47;4991240;28;20373;-75
2024/03/30 05:05:59;;;;;;;58.78;12.48;;;;;;;10.80;69.71;96493.59;5012002;28;20067;-75
2024/03/30 05:08:33;;;;;;;66.55;13.70;;;;;;;10.85;69.66;96501.63;4987217;28;20537;-75
2024/03/30 05:11:00;;;;;;;66.35;13.48;;;;;;;10.84;69.69;96500.81;5018454;28;20036;-75
2024/03/30 05:13:26;;;;;;;59.72;12.60;;;;;;;10.85;69.49;96504.31;4978027;28;20063;-75
2024/03/30 05:15:55;;;;;;;78.13;14.23;;;;;;;10.88;69.08;96496.44;4997153;28;20179;-75
2024/03/30 05:18:22;;;;;;;63.00;13.55;;;;;;;10.91;68.85;96500.47;5005604;28;20574;-74
2024/03/30 05:20:59;;;;;;;74.35;15.55;;;;;;;10.95;68.50;96504.97;5005489;28;20057;-75
2024/03/30 05:23:30;;;;;;;61.40;13.68;;;;;;;10.93;68.68;96509.06;5029030;28;20080;-75
2024/03/30 05:26:05;;;;;;;78.75;15.45;;;;;;;10.90;68.61;96490.75;4992547;28;20057;-75
2024/03/30 05:28:37;;;;;;;63.78;13.88;;;;;;;10.97;68.12;96502.81;4970794;28;20046;-75
2024/03/30 05:31:09;;;;;;;70.18;14.07;;;;;;;10.87;69.06;96502.94;5023019;28;20045;-74
2024/03/30 05:33:36;;;;;;;61.63;12.48;;;;;;;10.87;68.79;96497.56;5002234;28;20049;-74
2024/03/30 05:36:03;;;;;;;63.92;13.85;;;;;;;10.81;69.45;96493.31;4976420;28;20041;-74
2024/03/30 05:38:28;;;;;;;65.22;13.63;;;;;;;10.77;69.29;96484.19;5017655;28;20398;-75
2024/03/30 05:40:57;;;;;;;63.15;14.48;;;;;;;10.89;68.82;96498.06;5004321;28;20032;-75
2024/03/30 05:43:23;;;;;;;65.45;13.75;;;;;;;10.80;68.71;96475.56;5010609;28;20038;-75
2024/03/30 05:45:55;;;;;;;79.20;15.68;;;;;;;11.02;67.76;96508.13;5017246;28;20504;-74
2024/03/30 05:48:21;;;;;;;73.18;15.85;;;;;;;10.92;67.79;96478.63;4998158;28;20045;-74
2024/03/30 05:50:47;;;;;;;69.18;14.82;;;;;;;11.13;67.60;96502.63;4992480;28;20044;-73
2024/03/30 05:53:12;;;;;;;68.00;15.57;;;;;;;11.09;66.95;96495.13;4990838;28;20049;-74
2024/03/30 05:55:40;;;;;;;75.03;14.68;;;;;;;11.18;66.69;96505.25;5014916;28;20412;-75
2024/03/30 05:58:09;;;;;;;70.80;13.85;;;;;;;11.11;67.05;96494.81;5020763;28;20041;-74
2024/03/30 06:00:38;;;;;;;64.43;14.00;;;;;;;11.22;67.51;96507.09;4995691;28;20033;-74
2024/03/30 06:03:06;;;;;;;73.45;14.77;;;;;;;11.13;67.99;96497.25;5009528;28;20061;-75
2024/03/30 06:05:32;;;;;;;80.03;14.18;;;;;;;11.08;67.83;96490.81;5029301;28;20029;-75
2024/03/30 06:08:00;;;;;;;78.95;15.63;;;;;;;11.08;67.81;96496.19;5003471;28;20037;-76
2024/03/30 06:10:25;;;;;;;71.10;15.30;;;;;;;11.13;68.14;96508.00;5000560;28;20084;-75
2024/03/30 06:12:52;;;;;;;72.70;15.55;;;;;;;10.99;67.95;96495.22;4987417;28;20056;-76
2024/03/30 06:15:21;;;;;;;68.80;15.15;;;;;;;11.04;68.43;96503.25;4995648;28;20033;-76
2024/03/30 06:17:49;;;;;;;62.58;14.23;;;;;;;11.03;68.55;96527.78;5025181;28;20052;-76
2024/03/30 06:20:18;;;;;;;70.03;14.30;;;;;;;10.92;68.54;96516.31;4979005;28;20041;-76
2024/03/30 06:22:45;;;;;;;70.43;15.65;;;;;;;10.92;67.84;96529.78;5007623;28;20037;-77
2024/03/30 06:25:23;;;;;;;68.63;15.93;;;;;;;11.00;68.73;96536.44;5019998;28;20033;-76
2024/03/30 06:27:49;;;;;;;80.63;15.18;;;;;;;10.84;67.90;96511.59;5014822;28;20056;-76
2024/03/30 06:30:17;;;;;;;74.72;18.25;;;;;;;11.00;68.28;96525.66;4998574;28;20390;-76
2024/03/30 06:32:43;;;;;;;70.97;15.60;;;;;;;11.01;68.37;96527.28;4994923;28;20047;-76
2024/03/30 06:35:08;;;;;;;72.53;15.68;;;;;;;10.99;69.41;96514.09;5000106;28;20029;-76
2024/03/30 06:37:34;;;;;;;65.78;15.10;;;;;;;11.11;69.36;96533.34;5013845;28;20611;-75
2024/03/30 06:45:29;;;;;;;77.35;26.98;;;;;;;11.08;70.86;96525.03;4998328;28;20037;-76
2024/03/30 06:47:57;;;;;;;76.10;22.98;;;;;;;11.07;71.15;96532.31;5002022;28;20473;-75
2024/03/30 06:50:24;;;;;;;60.17;17.98;;;;;;;11.16;70.42;96551.31;5006965;28;20034;-76
2024/03/30 06:52:52;;;;;;;64.75;14.30;;;;;;;11.26;69.68;96555.78;5007409;28;20040;-76
2024/03/30 06:55:18;;;;;;;59.15;14.50;;;;;;;11.36;68.73;96552.97;5002031;28;20046;-76
2024/03/30 06:57:49;;;;;;;64.85;15.88;;;;;;;11.34;69.56;96528.22;5008734;28;20029;-76
2024/03/30 07:00:15;;;;;;;65.00;14.88;;;;;;;11.48;69.89;96539.88;5005061;28;20084;-75
2024/03/30 07:02:43;;;;;;;71.78;15.98;;;;;;;11.55;68.97;96530.31;4995878;28;20045;-76
2024/03/30 07:05:10;;;;;;;75.00;15.80;;;;;;;11.59;69.21;96533.25;5018824;28;20521;-76
2024/03/30 07:07:36;;;;;;;69.22;16.58;;;;;;;11.75;69.36;96537.38;4995187;28;20033;-76
2024/03/30 07:10:04;;;;;;;63.10;14.57;;;;;;;11.85;69.48;96531.81;5016711;28;20046;-76
2024/03/30 07:12:31;;;;;;;76.78;15.20;;;;;;;12.01;69.45;96519.72;5007832;28;20026;-77
2024/03/30 07:14:59;;;;;;;76.90;16.08;;;;;;;12.25;68.75;96530.38;5006114;28;20067;-76
2024/03/30 07:17:27;;;;;;;79.68;17.77;;;;;;;12.25;68.05;96508.78;5010365;28;20057;-76
2024/03/30 07:19:54;;;;;;;71.43;16.42;;;;;;;12.46;69.67;96526.25;5015118;28;20044;-76
2024/03/30 07:22:24;;;;;;;65.75;17.65;;;;;;;12.54;70.85;96522.03;4986063;28;20025;-76
2024/03/30 07:24:51;;;;;;;67.45;16.02;;;;;;;12.77;71.90;96542.66;5007779;28;20034;-76
2024/03/30 07:27:26;;;;;;;69.00;15.93;;;;;;;12.85;72.44;96534.69;5010203;28;20026;-76
2024/03/30 07:29:57;;;;;;;61.00;15.00;;;;;;;12.99;71.66;96537.41;5012311;28;20040;-76
2024/03/30 07:32:24;;;;;;;70.90;16.60;;;;;;;13.02;69.82;96528.69;5006888;28;20535;-76
2024/03/30 07:34:50;;;;;;;78.55;16.73;;;;;;;13.20;67.91;96529.72;4987960;28;20515;-76
2024/03/30 07:37:16;;;;;;;91.70;18.02;;;;;;;13.19;64.34;96518.09;4995519;28;20037;-76
2024/03/30 07:39:47;;;;;;;74.65;16.75;;;;;;;13.41;62.97;96534.41;4994130;28;20029;-77
2024/03/30 07:42:14;;;;;;;81.18;16.77;;;;;;;13.51;61.47;96531.47;5009616;28;20050;-76
2024/03/30 07:44:47;;;;;;;85.47;16.52;;;;;;;13.60;59.06;96535.06;5012046;28;20400;-76
2024/03/30 07:47:21;;;;;;;97.25;17.92;;;;;;;13.69;58.59;96533.25;5005457;28;20065;-76
2024/03/30 07:49:47;;;;;;;94.05;18.67;;;;;;;13.85;58.94;96537.19;4996297;28;20077;-76
2024/03/30 07:52:14;;;;;;;87.05;16.15;;;;;;;13.84;58.86;96513.94;4997991;28;20063;-76
2024/03/30 07:54:40;;;;;;;80.88;15.93;;;;;;;13.92;59.04;96504.31;5000624;28;20049;-76
2024/03/30 07:57:05;;;;;;;86.80;18.08;;;;;;;14.19;59.18;96525.81;5003733;28;20026;-77
2024/03/30 07:59:33;;;;;;;89.63;18.25;;;;;;;14.38;59.62;96529.19;5004099;28;20682;-77
2024/03/30 08:02:02;;;;;;;86.38;16.80;;;;;;;14.45;60.81;96518.72;5358731;22;21118;-77
2024/03/30 08:08:36;;;;;;;85.97;16.90;;;;;;;14.91;61.59;96536.50;5062486;28;20050;-77
2024/03/30 08:11:26;;;;;;;80.07;16.83;;;;;;;14.64;63.90;96456.19;5023159;28;20037;-77
2024/03/30 08:15:07;;;;;;;78.30;16.77;;;;;;;15.29;64.55;96526.72;5060147;28;20048;-77
2024/03/30 08:20:51;;;;;;;;;;;;;;;15.62;62.00;96527.94;5054365;28;20908;-77
2024/03/30 08:26:48;;;;;;;76.30;15.98;;;;;;;15.99;60.49;96517.56;5082696;28;20059;-78
2024/03/30 08:29:15;;;;;;;79.95;15.43;;;;;;;16.13;57.37;96519.03;5034312;28;20041;-78
2024/03/30 08:31:42;;;;;;;81.97;15.60;;;;;;;16.42;57.14;96532.75;5053920;28;20028;-77
2024/03/30 08:34:11;;;;;;;64.57;14.63;;;;;;;16.22;56.84;96459.28;5028688;28;20050;-77
2024/03/30 08:36:37;;;;;;;73.03;14.57;;;;;;;16.36;54.50;96447.06;5035596;28;20476;-77
2024/03/30 08:39:03;;;;;;;71.53;14.93;;;;;;;17.07;52.53;96518.03;5078619;28;20850;-77
2024/03/30 08:41:33;;;;;;;79.20;14.55;;;;;;;17.26;49.69;96504.81;5063118;28;20043;-77
2024/03/30 08:44:04;;;;;;;78.20;14.38;;;;;;;17.42;49.36;96508.56;5074180;28;20056;-77
2024/03/30 08:46:30;;;;;;;68.13;13.93;;;;;;;17.76;48.17;96527.41;5059386;28;20044;-77
2024/03/30 08:49:04;;;;;;;80.50;14.68;;;;;;;17.93;45.88;96510.97;5062937;28;20044;-77
2024/03/30 08:51:31;;;;;;;69.18;14.02;;;;;;;18.05;46.61;96517.59;5048403;28;20102;-77
2024/03/30 08:54:04;;;;;;;79.28;14.50;;;;;;;18.05;46.03;96488.44;5058875;28;20037;-77
2024/03/30 08:56:31;;;;;;;74.53;13.50;;;;;;;18.19;45.22;96493.59;5037073;28;20484;-77
2024/03/30 08:58:57;;;;;;;60.40;13.18;;;;;;;18.45;44.90;96515.97;5022017;28;20487;-77
2024/03/30 09:01:23;;;;;;;80.85;13.15;;;;;;;18.50;43.65;96507.59;5031689;28;20047;-77
2024/03/30 09:03:49;;;;;;;73.40;13.50;;;;;;;18.66;44.71;96516.75;5032530;28;20531;-78
2024/03/30 09:06:17;;;;;;;81.15;13.57;;;;;;;18.73;44.36;96514.25;5022901;28;20036;-78
2024/03/30 09:08:45;;;;;;;68.90;13.02;;;;;;;18.80;43.44;96508.25;5045048;28;20512;-77
2024/03/30 09:11:10;;;;;;;87.35;15.10;;;;;;;18.75;47.26;96498.34;5039730;28;20115;-78
2024/03/30 09:13:37;;;;;;;85.88;14.70;;;;;;;18.66;47.13;96473.09;5042270;28;20090;-78
2024/03/30 09:16:02;;;;;;;72.15;15.95;;;;;;;18.85;47.50;96503.38;5041388;28;20499;-77
2024/03/30 09:18:29;;;;;;;76.18;14.82;;;;;;;18.97;48.15;96506.13;5038574;28;20036;-78
2024/03/30 09:20:55;;;;;;;70.57;14.38;;;;;;;18.97;47.86;96503.41;5044518;28;20059;-78
2024/03/30 09:23:20;;;;;;;85.70;16.05;;;;;;;19.03;47.21;96502.03;5039703;28;20627;-78
2024/03/30 09:25:49;;;;;;;77.38;14.15;;;;;;;19.27;46.83;96515.69;5041701;28;20041;-77
2024/03/30 09:28:15;;;;;;;76.60;13.95;;;;;;;19.45;45.56;96515.47;5030703;28;20111;-77
2024/03/30 09:30:40;;;;;;;71.07;13.25;;;;;;;19.60;44.93;96509.34;5031454;28;20123;-77
2024/03/30 09:33:06;;;;;;;75.90;13.95;;;;;;;19.59;42.32;96500.34;5023334;28;20491;-77
2024/03/30 09:35:31;;;;;;;75.68;13.55;;;;;;;19.60;41.10;96490.22;5041679;28;20051;-77
2024/03/30 09:37:57;;;;;;;77.97;13.35;;;;;;;19.55;42.48;96498.66;5037519;28;20028;-77
2024/03/30 09:40:23;;;;;;;80.63;14.05;;;;;;;19.49;43.50;96478.94;5042564;28;20036;-77
2024/03/30 09:42:49;;;;;;;85.38;14.95;;;;;;;19.55;45.33;96487.72;5038087;28;20116;-78
2024/03/30 09:45:15;;;;;;;68.50;13.68;;;;;;;19.57;44.73;96488.16;5067451;28;20510;-77
2024/03/30 09:47:43;;;;;;;84.72;13.18;;;;;;;19.63;42.88;96497.69;5030421;28;20475;-77
2024/03/30 09:50:10;;;;;;;66.60;13.05;;;;;;;19.58;42.62;96471.44;5042795;28;20060;-77
2024/03/30 09:52:40;;;;;;;66.35;11.57;;;;;;;19.71;42.26;96494.06;5063400;28;20090;-77
2024/03/30 09:55:14;;;;;;;74.35;12.20;;;;;;;19.75;42.68;96486.75;5044917;28;20494;-77
2024/03/30 09:57:50;;;;;;;70.55;12.20;;;;;;;19.72;42.78;96482.00;5019919;28;20033;-81
2024/03/30 10:00:17;;;;;;;65.13;11.60;;;;;;;19.66;41.45;96462.31;5046667;28;20036;-78
2024/03/30 10:02:42;;;;;;;73.05;13.23;;;;;;;19.82;41.54;96473.31;5031220;28;20028;-77
2024/03/30 10:05:09;;;;;;;69.15;11.68;;;;;;;19.85;41.94;96472.63;5046642;28;20054;-78
2024/03/30 10:07:37;;;;;;;62.10;11.38;;;;;;;19.91;41.92;96472.03;5054350;28;20020;-78
2024/03/30 10:10:12;;;;;;;63.35;12.23;;;;;;;20.00;41.84;96471.88;5038553;28;20036;-77
2024/03/30 10:13:15;;;;;;;77.90;13.52;;;;;;;20.05;42.14;96477.13;5024768;28;20036;-77
2024/03/30 10:15:52;;;;;;;72.72;12.52;;;;;;;20.02;42.57;96457.91;5055895;28;20245;-77
2024/03/30 10:18:21;;;;;;;62.15;12.65;;;;;;;20.12;41.72;96463.66;5043633;28;20077;-77
2024/03/30 10:20:47;;;;;;;64.88;11.70;;;;;;;20.26;42.47;96475.00;5061154;28;20041;-77
2024/03/30 10:29:29;;;;;;;62.15;11.75;;;;;;;20.06;42.99;96432.25;5001089;28;20405;-78
2024/03/30 10:36:01;;;;;;;72.63;12.25;;;;;;;19.71;42.89;96371.13;4998483;28;20414;-78
2024/03/30 10:38:47;;;;;;;71.32;12.05;;;;;;;19.68;42.16;96371.81;4969237;28;20137;-78
2024/03/30 10:41:44;;;;;;;78.88;12.50;;;;;;;19.55;41.48;96362.09;4981114;28;20042;-78
2024/03/30 10:44:50;;;;;;;;;;;;;;;;;;;;;
2024/03/30 10:47:27;;;;;;;61.85;12.43;;;;;;;19.33;43.41;96355.97;4996887;28;20089;-78
2024/03/30 10:50:02;;;;;;;66.78;12.23;;;;;;;19.92;45.36;96459.19;4952231;28;20038;-78
2024/03/30 10:53:00;;;;;;;82.50;14.25;;;;;;;19.46;46.87;96391.47;4968297;28;20129;-78
2024/03/30 10:56:23;;;;;;;62.92;12.77;;;;;;;19.09;49.09;96350.56;4969254;28;20038;-78
2024/03/30 10:59:05;;;;;;;60.67;11.45;;;;;;;19.26;47.19;96383.06;4992317;28;20042;-77
2024/03/30 11:01:33;;;;;;;68.72;11.70;;;;;;;19.64;48.09;96450.94;4973731;28;20034;-78
2024/03/30 11:04:23;;;;;;;72.30;12.68;;;;;;;18.97;47.80;96350.63;4964640;28;20069;-78
2024/03/30 11:07:06;;;;;;;68.72;12.90;;;;;;;19.43;48.75;96414.00;4968802;28;20449;-77
2024/03/30 11:09:43;;;;;;;77.88;12.55;;;;;;;19.37;48.19;96401.75;4970999;28;20540;-78
2024/03/30 11:12:29;;;;;;;72.88;13.15;;;;;;;19.62;49.01;96444.25;4987457;28;20052;-78
2024/03/30 11:15:15;;;;;;;66.30;11.93;;;;;;;18.89;49.20;96329.69;4994103;28;20226;-78
2024/03/30 11:18:11;;;;;;;84.63;12.07;;;;;;;19.26;48.11;96376.81;4972839;28;20033;-78
2024/03/30 11:20:59;;;;;;;67.03;12.52;;;;;;;19.19;46.22;96371.94;4952154;28;20037;-78
2024/03/30 11:23:58;;;;;;;74.55;12.02;;;;;;;19.10;44.09;96349.44;4982937;28;20042;-77
2024/03/30 11:26:39;;;;;;;61.45;12.05;;;;;;;19.67;43.86;96441.28;4954224;28;20486;-78
2024/03/30 11:29:23;;;;;;;70.57;12.57;;;;;;;19.44;44.08;96394.53;4966083;28;20050;-78
2024/03/30 11:32:13;;;;;;;66.05;12.23;;;;;;;19.64;44.77;96411.91;4986673;28;20035;-78
2024/03/30 11:34:50;;;;;;;72.47;12.38;;;;;;;19.68;44.68;96410.06;4956093;28;20042;-78
2024/03/30 11:37:26;;;;;;;70.53;12.73;;;;;;;19.74;46.12;96404.00;4990447;28;20054;-78
2024/03/30 11:39:57;;;;;;;67.35;11.82;;;;;;;19.73;47.32;96404.38;4973825;28;20034;-77
2024/03/30 11:42:32;;;;;;;75.80;13.20;;;;;;;19.74;47.75;96408.69;4974219;28;20093;-78
2024/03/30 11:44:58;;;;;;;68.63;12.88;;;;;;;19.67;47.76;96392.91;4970979;28;20401;-77
2024/03/30 11:47:23;;;;;;;63.92;12.27;;;;;;;19.70;47.34;96385.94;4981230;28;20057;-77
2024/03/30 11:49:49;;;;;;;71.63;13.60;;;;;;;19.70;47.69;96375.00;4975452;28;20038;-78
2024/03/30 11:52:15;;;;;;;63.80;12.60;;;;;;;19.81;48.01;96384.31;4966960;28;20030;-78
2024/03/30 11:54:44;;;;;;;67.15;13.68;;;;;;;19.97;48.09;96390.63;4983176;28;20062;-77
2024/03/30 11:57:16;;;;;;;78.28;12.82;;;;;;;19.95;47.24;96377.28;4969222;28;20034;-78
2024/03/30 11:59:43;;;;;;;77.32;13.43;;;;;;;19.97;47.85;96368.75;4962279;28;20033;-78